sensor_id;sensor_type;location;lat;lon;timestamp;P1;durP1;ratioP1;P2;durP2;ratioP2
39410;SDS011;26579;43.238;23.124;2022-07-01T04:49:55;5.20;;;3.60;;
39410;SDS011;26579;43.238;23.124;2022-07-01T04:52:20;5.38;;;3.85;;
39410;SDS011;26579;43.238;23.124;2022-07-01T04:54:46;6.65;;;3.90;;
39410;SDS011;26579;43.238;23.124;2022-07-01T04:57:12;7.78;;;3.67;;
39410;SDS011;26579;43.238;23.124;2022-07-01T04:59:37;9.38;;;3.58;;
39410;SDS011;26579;43.238;23.124;2022-07-01T05:02:03;4.32;;;3.25;;
39410;SDS011;26579;43.238;23.124;2022-07-01T05:04:29;7.82;;;4.05;;
39410;SDS011;26579;43.238;23.124;2022-07-01T05:06:55;5.82;;;3.80;;
39410;SDS011;26579;43.238;23.124;2022-07-01T05:09:20;7.35;;;3.60;;
39410;SDS011;26579;43.238;23.124;2022-07-01T05:11:46;6.85;;;4.05;;
39410;SDS011;26579;43.238;23.124;2022-07-01T05:14:12;6.28;;;4.05;;
39410;SDS011;26579;43.238;23.124;2022-07-01T05:16:37;9.07;;;4.05;;
39410;SDS011;26579;43.238;23.124;2022-07-01T05:19:04;6.18;;;4.43;;
39410;SDS011;26579;43.238;23.124;2022-07-01T05:21:30;8.98;;;4.30;;
39410;SDS011;26579;43.238;23.124;2022-07-01T05:23:55;6.82;;;4.38;;
39410;SDS011;26579;43.238;23.124;2022-07-01T05:26:21;8.00;;;4.47;;
39410;SDS011;26579;43.238;23.124;2022-07-01T05:28:47;9.75;;;5.78;;
39410;SDS011;26579;43.238;23.124;2022-07-01T05:31:13;8.70;;;6.05;;
39410;SDS011;26579;43.238;23.124;2022-07-01T05:33:39;10.30;;;5.00;;
39410;SDS011;26579;43.238;23.124;2022-07-01T05:36:05;12.35;;;5.38;;
39410;SDS011;26579;43.238;23.124;2022-07-01T05:38:31;6.50;;;4.72;;
39410;SDS011;26579;43.238;23.124;2022-07-01T05:40:57;10.52;;;5.03;;
39410;SDS011;26579;43.238;23.124;2022-07-01T05:43:22;6.05;;;4.57;;
39410;SDS011;26579;43.238;23.124;2022-07-01T05:45:48;6.35;;;4.32;;
39410;SDS011;26579;43.238;23.124;2022-07-01T05:48:14;10.02;;;4.75;;
39410;SDS011;26579;43.238;23.124;2022-07-01T05:50:40;8.68;;;4.47;;
39410;SDS011;26579;43.238;23.124;2022-07-01T05:53:06;5.55;;;4.30;;
39410;SDS011;26579;43.238;23.124;2022-07-01T05:55:32;9.50;;;4.50;;
39410;SDS011;26579;43.238;23.124;2022-07-01T05:57:57;7.75;;;4.40;;
39410;SDS011;26579;43.238;23.124;2022-07-01T06:00:23;6.07;;;4.13;;
39410;SDS011;26579;43.238;23.124;2022-07-01T06:02:49;8.57;;;4.50;;
39410;SDS011;26579;43.238;23.124;2022-07-01T06:05:14;5.78;;;3.95;;
39410;SDS011;26579;43.238;23.124;2022-07-01T06:07:41;6.90;;;4.63;;
39410;SDS011;26579;43.238;23.124;2022-07-01T06:10:07;5.57;;;4.43;;
39410;SDS011;26579;43.238;23.124;2022-07-01T06:12:33;7.93;;;4.90;;
39410;SDS011;26579;43.238;23.124;2022-07-01T06:14:59;10.10;;;5.30;;
39410;SDS011;26579;43.238;23.124;2022-07-01T06:17:25;22.95;;;7.15;;
39410;SDS011;26579;43.238;23.124;2022-07-01T06:19:50;9.20;;;4.28;;
39410;SDS011;26579;43.238;23.124;2022-07-01T06:22:16;8.05;;;4.32;;
39410;SDS011;26579;43.238;23.124;2022-07-01T06:24:42;8.45;;;4.65;;
39410;SDS011;26579;43.238;23.124;2022-07-01T06:27:07;8.88;;;4.65;;
39410;SDS011;26579;43.238;23.124;2022-07-01T06:29:34;11.13;;;4.85;;
39410;SDS011;26579;43.238;23.124;2022-07-01T06:32:00;6.65;;;4.28;;
39410;SDS011;26579;43.238;23.124;2022-07-01T06:34:26;7.63;;;5.25;;
39410;SDS011;26579;43.238;23.124;2022-07-01T06:36:51;8.13;;;4.10;;
39410;SDS011;26579;43.238;23.124;2022-07-01T06:39:17;6.72;;;4.07;;
39410;SDS011;26579;43.238;23.124;2022-07-01T06:41:43;8.05;;;4.13;;
39410;SDS011;26579;43.238;23.124;2022-07-01T06:44:08;9.10;;;4.13;;
39410;SDS011;26579;43.238;23.124;2022-07-01T06:46:34;13.88;;;5.20;;
39410;SDS011;26579;43.238;23.124;2022-07-01T06:49:00;9.25;;;4.13;;
39410;SDS011;26579;43.238;23.124;2022-07-01T06:51:26;8.10;;;4.10;;
39410;SDS011;26579;43.238;23.124;2022-07-01T06:53:52;12.32;;;4.63;;
39410;SDS011;26579;43.238;23.124;2022-07-01T06:56:18;12.43;;;4.95;;
39410;SDS011;26579;43.238;23.124;2022-07-01T06:58:43;8.32;;;5.22;;
39410;SDS011;26579;43.238;23.124;2022-07-01T07:01:10;7.03;;;4.78;;
39410;SDS011;26579;43.238;23.124;2022-07-01T07:03:36;22.00;;;4.90;;
39410;SDS011;26579;43.238;23.124;2022-07-01T07:06:02;10.43;;;5.05;;
39410;SDS011;26579;43.238;23.124;2022-07-01T07:08:29;10.50;;;5.00;;
39410;SDS011;26579;43.238;23.124;2022-07-01T07:10:56;10.43;;;5.93;;
39410;SDS011;26579;43.238;23.124;2022-07-01T07:13:22;7.53;;;4.88;;
39410;SDS011;26579;43.238;23.124;2022-07-01T07:15:48;5.97;;;4.13;;
39410;SDS011;26579;43.238;23.124;2022-07-01T07:18:13;6.65;;;4.38;;
39410;SDS011;26579;43.238;23.124;2022-07-01T07:20:39;6.97;;;4.30;;
39410;SDS011;26579;43.238;23.124;2022-07-01T07:23:05;8.40;;;4.28;;
39410;SDS011;26579;43.238;23.124;2022-07-01T07:25:31;8.02;;;4.50;;
39410;SDS011;26579;43.238;23.124;2022-07-01T07:27:57;8.85;;;5.20;;
39410;SDS011;26579;43.238;23.124;2022-07-01T07:30:23;10.05;;;4.47;;
39410;SDS011;26579;43.238;23.124;2022-07-01T07:32:49;6.35;;;4.40;;
39410;SDS011;26579;43.238;23.124;2022-07-01T07:35:15;9.98;;;5.80;;
39410;SDS011;26579;43.238;23.124;2022-07-01T07:37:41;6.63;;;5.15;;
39410;SDS011;26579;43.238;23.124;2022-07-01T07:40:07;8.48;;;4.50;;
39410;SDS011;26579;43.238;23.124;2022-07-01T07:42:35;7.45;;;4.50;;
39410;SDS011;26579;43.238;23.124;2022-07-01T07:45:01;6.07;;;4.53;;
39410;SDS011;26579;43.238;23.124;2022-07-01T07:47:27;8.98;;;4.57;;
39410;SDS011;26579;43.238;23.124;2022-07-01T07:49:53;5.25;;;3.85;;
39410;SDS011;26579;43.238;23.124;2022-07-01T07:52:19;6.25;;;4.15;;
39410;SDS011;26579;43.238;23.124;2022-07-01T07:54:44;4.68;;;3.58;;
39410;SDS011;26579;43.238;23.124;2022-07-01T07:57:10;7.88;;;3.83;;
39410;SDS011;26579;43.238;23.124;2022-07-01T07:59:36;7.28;;;4.38;;
39410;SDS011;26579;43.238;23.124;2022-07-01T08:02:02;5.13;;;3.85;;
39410;SDS011;26579;43.238;23.124;2022-07-01T08:04:28;9.20;;;3.80;;
39410;SDS011;26579;43.238;23.124;2022-07-01T08:06:53;7.28;;;4.10;;
39410;SDS011;26579;43.238;23.124;2022-07-01T08:09:19;5.18;;;3.92;;
39410;SDS011;26579;43.238;23.124;2022-07-01T08:11:45;6.78;;;3.70;;
39410;SDS011;26579;43.238;23.124;2022-07-01T08:14:10;5.70;;;3.40;;
39410;SDS011;26579;43.238;23.124;2022-07-01T08:16:36;6.95;;;3.67;;
39410;SDS011;26579;43.238;23.124;2022-07-01T08:19:02;9.00;;;4.50;;
39410;SDS011;26579;43.238;23.124;2022-07-01T08:21:28;5.22;;;3.80;;
39410;SDS011;26579;43.238;23.124;2022-07-01T08:23:54;8.15;;;4.10;;
39410;SDS011;26579;43.238;23.124;2022-07-01T08:26:20;7.03;;;3.60;;
39410;SDS011;26579;43.238;23.124;2022-07-01T08:28:46;9.07;;;4.88;;
39410;SDS011;26579;43.238;23.124;2022-07-01T08:31:13;7.57;;;4.25;;
39410;SDS011;26579;43.238;23.124;2022-07-01T08:33:39;5.40;;;4.00;;
39410;SDS011;26579;43.238;23.124;2022-07-01T08:36:05;5.90;;;3.75;;
39410;SDS011;26579;43.238;23.124;2022-07-01T08:38:32;10.55;;;3.78;;
39410;SDS011;26579;43.238;23.124;2022-07-01T08:40:58;9.25;;;3.58;;
39410;SDS011;26579;43.238;23.124;2022-07-01T08:43:24;6.43;;;3.90;;
39410;SDS011;26579;43.238;23.124;2022-07-01T08:45:53;8.50;;;3.92;;
39410;SDS011;26579;43.238;23.124;2022-07-01T08:48:19;7.90;;;4.13;;
39410;SDS011;26579;43.238;23.124;2022-07-01T08:50:45;5.63;;;4.05;;
39410;SDS011;26579;43.238;23.124;2022-07-01T08:53:11;6.88;;;3.75;;
39410;SDS011;26579;43.238;23.124;2022-07-01T08:55:38;11.60;;;4.95;;
39410;SDS011;26579;43.238;23.124;2022-07-01T08:58:05;21.20;;;9.55;;
39410;SDS011;26579;43.238;23.124;2022-07-01T09:00:31;7.15;;;4.30;;
39410;SDS011;26579;43.238;23.124;2022-07-01T09:02:57;4.35;;;3.40;;
39410;SDS011;26579;43.238;23.124;2022-07-01T09:05:24;9.43;;;3.58;;
39410;SDS011;26579;43.238;23.124;2022-07-01T09:10:24;8.50;;;4.15;;
39410;SDS011;26579;43.238;23.124;2022-07-01T09:12:50;6.72;;;3.78;;
39410;SDS011;26579;43.238;23.124;2022-07-01T09:15:23;6.20;;;3.80;;
39410;SDS011;26579;43.238;23.124;2022-07-01T09:17:54;9.82;;;3.42;;
39410;SDS011;26579;43.238;23.124;2022-07-01T09:20:37;8.43;;;4.00;;
39410;SDS011;26579;43.238;23.124;2022-07-01T09:23:10;4.93;;;3.42;;
39410;SDS011;26579;43.238;23.124;2022-07-01T09:25:42;4.13;;;3.15;;
39410;SDS011;26579;43.238;23.124;2022-07-01T09:28:11;7.43;;;4.18;;
39410;SDS011;26579;43.238;23.124;2022-07-01T09:30:39;3.97;;;3.50;;
39410;SDS011;26579;43.238;23.124;2022-07-01T09:35:46;5.88;;;3.75;;
39410;SDS011;26579;43.238;23.124;2022-07-01T09:38:14;6.05;;;3.58;;
39410;SDS011;26579;43.238;23.124;2022-07-01T09:40:48;6.70;;;3.80;;
39410;SDS011;26579;43.238;23.124;2022-07-01T09:46:05;6.43;;;4.03;;
39410;SDS011;26579;43.238;23.124;2022-07-01T09:50:58;5.88;;;3.70;;
39410;SDS011;26579;43.238;23.124;2022-07-01T09:53:28;4.80;;;3.58;;
39410;SDS011;26579;43.238;23.124;2022-07-01T09:55:54;6.05;;;4.45;;
39410;SDS011;26579;43.238;23.124;2022-07-01T09:58:20;5.82;;;3.60;;
39410;SDS011;26579;43.238;23.124;2022-07-01T10:00:46;7.57;;;4.13;;
39410;SDS011;26579;43.238;23.124;2022-07-01T10:03:13;9.98;;;5.18;;
39410;SDS011;26579;43.238;23.124;2022-07-01T10:05:47;5.78;;;4.18;;
39410;SDS011;26579;43.238;23.124;2022-07-01T10:13:43;6.38;;;3.97;;
39410;SDS011;26579;43.238;23.124;2022-07-01T10:16:11;8.05;;;4.75;;
39410;SDS011;26579;43.238;23.124;2022-07-01T10:18:37;8.00;;;4.93;;
39410;SDS011;26579;43.238;23.124;2022-07-01T10:21:03;7.15;;;5.10;;
39410;SDS011;26579;43.238;23.124;2022-07-01T10:23:39;7.07;;;4.85;;
39410;SDS011;26579;43.238;23.124;2022-07-01T10:26:07;8.55;;;5.57;;
39410;SDS011;26579;43.238;23.124;2022-07-01T10:31:06;8.00;;;4.57;;
39410;SDS011;26579;43.238;23.124;2022-07-01T10:36:28;10.13;;;5.80;;
39410;SDS011;26579;43.238;23.124;2022-07-01T10:41:27;7.97;;;4.60;;
39410;SDS011;26579;43.238;23.124;2022-07-01T10:43:54;6.38;;;4.10;;
39410;SDS011;26579;43.238;23.124;2022-07-01T10:49:15;9.30;;;5.05;;
39410;SDS011;26579;43.238;23.124;2022-07-01T10:51:49;7.90;;;4.53;;
39410;SDS011;26579;43.238;23.124;2022-07-01T10:59:43;7.75;;;4.60;;
39410;SDS011;26579;43.238;23.124;2022-07-01T11:02:35;6.20;;;4.95;;
39410;SDS011;26579;43.238;23.124;2022-07-01T11:05:03;6.55;;;5.22;;
39410;SDS011;26579;43.238;23.124;2022-07-01T11:07:34;7.68;;;3.95;;
39410;SDS011;26579;43.238;23.124;2022-07-01T11:10:02;7.60;;;4.10;;
39410;SDS011;26579;43.238;23.124;2022-07-01T11:12:30;7.78;;;4.00;;
39410;SDS011;26579;43.238;23.124;2022-07-01T11:14:56;5.40;;;3.85;;
39410;SDS011;26579;43.238;23.124;2022-07-01T11:17:24;6.28;;;4.40;;
39410;SDS011;26579;43.238;23.124;2022-07-01T11:19:55;7.03;;;4.22;;
39410;SDS011;26579;43.238;23.124;2022-07-01T11:22:23;7.95;;;4.25;;
39410;SDS011;26579;43.238;23.124;2022-07-01T11:24:54;8.10;;;4.22;;
39410;SDS011;26579;43.238;23.124;2022-07-01T11:27:22;6.40;;;3.92;;
39410;SDS011;26579;43.238;23.124;2022-07-01T11:29:51;5.50;;;4.28;;
39410;SDS011;26579;43.238;23.124;2022-07-01T11:32:25;7.45;;;5.00;;
39410;SDS011;26579;43.238;23.124;2022-07-01T11:34:58;8.70;;;4.38;;
39410;SDS011;26579;43.238;23.124;2022-07-01T11:37:26;8.65;;;3.70;;
39410;SDS011;26579;43.238;23.124;2022-07-01T11:40:03;6.07;;;4.40;;
39410;SDS011;26579;43.238;23.124;2022-07-01T11:42:30;8.73;;;5.03;;
39410;SDS011;26579;43.238;23.124;2022-07-01T11:44:56;9.30;;;4.00;;
39410;SDS011;26579;43.238;23.124;2022-07-01T11:47:23;7.50;;;4.68;;
39410;SDS011;26579;43.238;23.124;2022-07-01T11:49:50;6.75;;;4.40;;
39410;SDS011;26579;43.238;23.124;2022-07-01T11:52:17;7.05;;;4.78;;
39410;SDS011;26579;43.238;23.124;2022-07-01T11:54:45;7.85;;;4.80;;
39410;SDS011;26579;43.238;23.124;2022-07-01T11:57:14;12.05;;;4.53;;
39410;SDS011;26579;43.238;23.124;2022-07-01T11:59:43;4.47;;;4.07;;
39410;SDS011;26579;43.238;23.124;2022-07-01T12:02:11;5.78;;;4.80;;
39410;SDS011;26579;43.238;23.124;2022-07-01T12:04:39;12.18;;;4.45;;
39410;SDS011;26579;43.238;23.124;2022-07-01T12:07:06;7.57;;;4.80;;
39410;SDS011;26579;43.238;23.124;2022-07-01T12:09:32;7.20;;;5.30;;
39410;SDS011;26579;43.238;23.124;2022-07-01T12:11:59;5.88;;;4.63;;
39410;SDS011;26579;43.238;23.124;2022-07-01T12:14:28;10.63;;;5.13;;
39410;SDS011;26579;43.238;23.124;2022-07-01T12:17:05;8.60;;;7.22;;
39410;SDS011;26579;43.238;23.124;2022-07-01T12:22:05;4.45;;;4.05;;
39410;SDS011;26579;43.238;23.124;2022-07-01T12:24:33;5.82;;;4.63;;
39410;SDS011;26579;43.238;23.124;2022-07-01T12:29:28;10.43;;;4.75;;
39410;SDS011;26579;43.238;23.124;2022-07-01T12:31:56;6.38;;;4.93;;
39410;SDS011;26579;43.238;23.124;2022-07-01T12:34:36;7.10;;;4.75;;
39410;SDS011;26579;43.238;23.124;2022-07-01T12:37:07;11.63;;;7.80;;
39410;SDS011;26579;43.238;23.124;2022-07-01T12:39:41;8.52;;;4.85;;
39410;SDS011;26579;43.238;23.124;2022-07-01T12:44:46;9.05;;;5.97;;
39410;SDS011;26579;43.238;23.124;2022-07-01T12:53:04;7.20;;;4.88;;
39410;SDS011;26579;43.238;23.124;2022-07-01T12:55:41;7.20;;;4.72;;
39410;SDS011;26579;43.238;23.124;2022-07-01T12:58:13;10.95;;;5.10;;
39410;SDS011;26579;43.238;23.124;2022-07-01T13:00:42;5.57;;;4.70;;
39410;SDS011;26579;43.238;23.124;2022-07-01T13:03:10;6.50;;;4.85;;
39410;SDS011;26579;43.238;23.124;2022-07-01T13:05:36;8.85;;;5.60;;
39410;SDS011;26579;43.238;23.124;2022-07-01T13:08:03;7.68;;;5.07;;
39410;SDS011;26579;43.238;23.124;2022-07-01T13:10:29;8.30;;;4.90;;
39410;SDS011;26579;43.238;23.124;2022-07-01T13:12:55;6.28;;;4.55;;
39410;SDS011;26579;43.238;23.124;2022-07-01T13:15:21;7.38;;;5.05;;
39410;SDS011;26579;43.238;23.124;2022-07-01T13:17:47;7.75;;;5.00;;
39410;SDS011;26579;43.238;23.124;2022-07-01T13:20:14;9.00;;;5.18;;
39410;SDS011;26579;43.238;23.124;2022-07-01T13:22:41;7.47;;;4.53;;
39410;SDS011;26579;43.238;23.124;2022-07-01T13:25:07;5.20;;;4.70;;
39410;SDS011;26579;43.238;23.124;2022-07-01T13:27:34;6.97;;;4.68;;
39410;SDS011;26579;43.238;23.124;2022-07-01T13:30:00;7.63;;;5.82;;
39410;SDS011;26579;43.238;23.124;2022-07-01T13:32:26;8.93;;;5.63;;
39410;SDS011;26579;43.238;23.124;2022-07-01T13:34:52;6.07;;;5.45;;
39410;SDS011;26579;43.238;23.124;2022-07-01T13:37:17;7.50;;;5.35;;
39410;SDS011;26579;43.238;23.124;2022-07-01T13:39:43;9.55;;;6.32;;
39410;SDS011;26579;43.238;23.124;2022-07-01T13:42:09;11.05;;;5.53;;
39410;SDS011;26579;43.238;23.124;2022-07-01T13:44:35;7.95;;;5.15;;
39410;SDS011;26579;43.238;23.124;2022-07-01T13:47:01;7.60;;;5.40;;
39410;SDS011;26579;43.238;23.124;2022-07-01T13:49:27;8.15;;;5.95;;
39410;SDS011;26579;43.238;23.124;2022-07-01T13:51:53;7.55;;;5.07;;
39410;SDS011;26579;43.238;23.124;2022-07-01T13:54:19;7.22;;;5.25;;
39410;SDS011;26579;43.238;23.124;2022-07-01T13:56:45;7.60;;;5.18;;
39410;SDS011;26579;43.238;23.124;2022-07-01T13:59:11;8.88;;;5.25;;
39410;SDS011;26579;43.238;23.124;2022-07-01T14:01:37;6.30;;;4.97;;
39410;SDS011;26579;43.238;23.124;2022-07-01T14:04:03;7.18;;;5.40;;
39410;SDS011;26579;43.238;23.124;2022-07-01T14:06:29;8.00;;;6.05;;
39410;SDS011;26579;43.238;23.124;2022-07-01T14:08:55;12.00;;;6.10;;
39410;SDS011;26579;43.238;23.124;2022-07-01T14:11:21;5.68;;;4.90;;
39410;SDS011;26579;43.238;23.124;2022-07-01T14:13:47;10.20;;;5.03;;
39410;SDS011;26579;43.238;23.124;2022-07-01T14:16:13;6.82;;;5.47;;
39410;SDS011;26579;43.238;23.124;2022-07-01T14:18:39;10.05;;;5.53;;
39410;SDS011;26579;43.238;23.124;2022-07-01T14:21:05;6.90;;;5.28;;
39410;SDS011;26579;43.238;23.124;2022-07-01T14:23:31;6.25;;;5.38;;
39410;SDS011;26579;43.238;23.124;2022-07-01T14:25:57;9.00;;;5.03;;
39410;SDS011;26579;43.238;23.124;2022-07-01T14:28:23;7.03;;;6.05;;
39410;SDS011;26579;43.238;23.124;2022-07-01T14:30:49;8.15;;;5.70;;
39410;SDS011;26579;43.238;23.124;2022-07-01T14:33:15;9.75;;;5.50;;
39410;SDS011;26579;43.238;23.124;2022-07-01T14:35:41;5.97;;;5.00;;
39410;SDS011;26579;43.238;23.124;2022-07-01T14:38:07;6.53;;;5.30;;
39410;SDS011;26579;43.238;23.124;2022-07-01T14:40:32;6.15;;;5.55;;
39410;SDS011;26579;43.238;23.124;2022-07-01T14:43:00;6.57;;;5.28;;
39410;SDS011;26579;43.238;23.124;2022-07-01T14:45:26;7.03;;;5.28;;
39410;SDS011;26579;43.238;23.124;2022-07-01T14:47:52;6.95;;;5.15;;
39410;SDS011;26579;43.238;23.124;2022-07-01T14:50:18;8.32;;;5.10;;
39410;SDS011;26579;43.238;23.124;2022-07-01T14:52:44;8.88;;;6.50;;
39410;SDS011;26579;43.238;23.124;2022-07-01T14:55:10;6.65;;;5.45;;
39410;SDS011;26579;43.238;23.124;2022-07-01T14:57:36;7.63;;;6.82;;
39410;SDS011;26579;43.238;23.124;2022-07-01T15:00:03;7.13;;;5.70;;
39410;SDS011;26579;43.238;23.124;2022-07-01T15:02:30;10.07;;;6.22;;
39410;SDS011;26579;43.238;23.124;2022-07-01T15:04:56;10.55;;;5.43;;
39410;SDS011;26579;43.238;23.124;2022-07-01T15:07:22;10.35;;;5.13;;
39410;SDS011;26579;43.238;23.124;2022-07-01T15:09:48;9.32;;;5.75;;
39410;SDS011;26579;43.238;23.124;2022-07-01T15:12:13;9.63;;;5.90;;
39410;SDS011;26579;43.238;23.124;2022-07-01T15:14:39;8.27;;;5.80;;
39410;SDS011;26579;43.238;23.124;2022-07-01T15:17:05;7.90;;;5.70;;
39410;SDS011;26579;43.238;23.124;2022-07-01T15:19:30;5.97;;;5.22;;
39410;SDS011;26579;43.238;23.124;2022-07-01T15:21:56;6.18;;;5.28;;
39410;SDS011;26579;43.238;23.124;2022-07-01T15:24:23;6.57;;;4.78;;
39410;SDS011;26579;43.238;23.124;2022-07-01T15:26:49;10.45;;;5.95;;
39410;SDS011;26579;43.238;23.124;2022-07-01T15:29:15;7.82;;;5.88;;
39410;SDS011;26579;43.238;23.124;2022-07-01T15:31:41;8.43;;;6.10;;
39410;SDS011;26579;43.238;23.124;2022-07-01T15:34:07;11.20;;;6.28;;
39410;SDS011;26579;43.238;23.124;2022-07-01T15:36:33;10.55;;;6.38;;
39410;SDS011;26579;43.238;23.124;2022-07-01T15:38:59;9.68;;;6.47;;
39410;SDS011;26579;43.238;23.124;2022-07-01T15:41:25;11.27;;;6.15;;
39410;SDS011;26579;43.238;23.124;2022-07-01T15:43:54;7.35;;;5.80;;
39410;SDS011;26579;43.238;23.124;2022-07-01T15:46:19;6.30;;;5.68;;
39410;SDS011;26579;43.238;23.124;2022-07-01T15:48:45;13.75;;;6.32;;
39410;SDS011;26579;43.238;23.124;2022-07-01T15:51:11;6.00;;;5.40;;
39410;SDS011;26579;43.238;23.124;2022-07-01T15:53:37;12.20;;;5.90;;
39410;SDS011;26579;43.238;23.124;2022-07-01T15:56:03;17.48;;;9.70;;
39410;SDS011;26579;43.238;23.124;2022-07-01T15:58:29;18.13;;;10.32;;
39410;SDS011;26579;43.238;23.124;2022-07-01T16:00:56;13.57;;;7.68;;
39410;SDS011;26579;43.238;23.124;2022-07-01T16:03:21;12.20;;;7.70;;
39410;SDS011;26579;43.238;23.124;2022-07-01T16:05:48;8.23;;;6.05;;
39410;SDS011;26579;43.238;23.124;2022-07-01T16:08:17;8.75;;;6.38;;
39410;SDS011;26579;43.238;23.124;2022-07-01T16:10:49;10.00;;;6.82;;
39410;SDS011;26579;43.238;23.124;2022-07-01T16:13:17;9.48;;;6.38;;
39410;SDS011;26579;43.238;23.124;2022-07-01T16:15:44;11.48;;;6.22;;
39410;SDS011;26579;43.238;23.124;2022-07-01T16:18:14;8.18;;;6.10;;
39410;SDS011;26579;43.238;23.124;2022-07-01T16:20:47;7.50;;;5.55;;
39410;SDS011;26579;43.238;23.124;2022-07-01T16:23:18;8.88;;;6.68;;
39410;SDS011;26579;43.238;23.124;2022-07-01T16:25:46;10.48;;;6.20;;
39410;SDS011;26579;43.238;23.124;2022-07-01T16:28:12;9.55;;;6.30;;
39410;SDS011;26579;43.238;23.124;2022-07-01T16:30:41;9.95;;;6.40;;
39410;SDS011;26579;43.238;23.124;2022-07-01T16:33:07;9.52;;;6.32;;
39410;SDS011;26579;43.238;23.124;2022-07-01T16:35:49;8.82;;;6.38;;
39410;SDS011;26579;43.238;23.124;2022-07-01T16:38:22;8.63;;;6.43;;
39410;SDS011;26579;43.238;23.124;2022-07-01T16:40:57;9.63;;;6.25;;
39410;SDS011;26579;43.238;23.124;2022-07-01T16:43:27;8.93;;;6.75;;
39410;SDS011;26579;43.238;23.124;2022-07-01T16:46:02;8.40;;;7.15;;
39410;SDS011;26579;43.238;23.124;2022-07-01T16:48:30;8.15;;;6.47;;
39410;SDS011;26579;43.238;23.124;2022-07-01T16:50:57;22.48;;;7.43;;
39410;SDS011;26579;43.238;23.124;2022-07-01T16:53:25;8.85;;;7.32;;
39410;SDS011;26579;43.238;23.124;2022-07-01T16:56:00;8.55;;;6.80;;
39410;SDS011;26579;43.238;23.124;2022-07-01T16:58:29;8.60;;;6.28;;
39410;SDS011;26579;43.238;23.124;2022-07-01T17:00:58;10.25;;;6.65;;
39410;SDS011;26579;43.238;23.124;2022-07-01T17:03:25;13.65;;;7.18;;
39410;SDS011;26579;43.238;23.124;2022-07-01T17:05:51;9.25;;;6.47;;
39410;SDS011;26579;43.238;23.124;2022-07-01T17:08:19;14.32;;;7.05;;
39410;SDS011;26579;43.238;23.124;2022-07-01T17:10:45;9.27;;;6.63;;
39410;SDS011;26579;43.238;23.124;2022-07-01T17:13:11;13.15;;;7.40;;
39410;SDS011;26579;43.238;23.124;2022-07-01T17:15:39;8.55;;;6.47;;
39410;SDS011;26579;43.238;23.124;2022-07-01T17:18:05;10.20;;;6.82;;
39410;SDS011;26579;43.238;23.124;2022-07-01T17:20:31;9.85;;;6.53;;
39410;SDS011;26579;43.238;23.124;2022-07-01T17:23:42;7.47;;;6.35;;
39410;SDS011;26579;43.238;23.124;2022-07-01T17:25:55;9.98;;;7.20;;
39410;SDS011;26579;43.238;23.124;2022-07-01T17:34:02;14.25;;;7.75;;
39410;SDS011;26579;43.238;23.124;2022-07-01T17:36:28;9.48;;;7.00;;
39410;SDS011;26579;43.238;23.124;2022-07-01T17:38:55;10.40;;;7.07;;
39410;SDS011;26579;43.238;23.124;2022-07-01T17:41:32;9.40;;;7.35;;
39410;SDS011;26579;43.238;23.124;2022-07-01T17:44:06;7.95;;;7.15;;
39410;SDS011;26579;43.238;23.124;2022-07-01T17:46:36;12.23;;;6.75;;
39410;SDS011;26579;43.238;23.124;2022-07-01T17:49:04;9.75;;;6.50;;
39410;SDS011;26579;43.238;23.124;2022-07-01T17:51:32;9.68;;;6.35;;
39410;SDS011;26579;43.238;23.124;2022-07-01T17:53:59;12.55;;;6.97;;
39410;SDS011;26579;43.238;23.124;2022-07-01T17:56:26;10.35;;;6.47;;
39410;SDS011;26579;43.238;23.124;2022-07-01T17:58:59;8.90;;;7.20;;
39410;SDS011;26579;43.238;23.124;2022-07-01T18:01:29;9.82;;;7.38;;
39410;SDS011;26579;43.238;23.124;2022-07-01T18:03:58;10.90;;;7.03;;
39410;SDS011;26579;43.238;23.124;2022-07-01T18:06:26;10.60;;;6.38;;
39410;SDS011;26579;43.238;23.124;2022-07-01T18:08:53;11.40;;;6.18;;
39410;SDS011;26579;43.238;23.124;2022-07-01T18:22:15;9.38;;;6.05;;
39410;SDS011;26579;43.238;23.124;2022-07-01T18:25:03;9.45;;;5.78;;
39410;SDS011;26579;43.238;23.124;2022-07-01T18:27:33;7.78;;;6.10;;
39410;SDS011;26579;43.238;23.124;2022-07-01T18:30:07;9.57;;;6.05;;
39410;SDS011;26579;43.238;23.124;2022-07-01T18:32:35;7.43;;;6.25;;
39410;SDS011;26579;43.238;23.124;2022-07-01T18:35:04;11.27;;;6.43;;
39410;SDS011;26579;43.238;23.124;2022-07-01T18:37:53;14.50;;;6.03;;
39410;SDS011;26579;43.238;23.124;2022-07-01T18:40:18;8.30;;;6.63;;
39410;SDS011;26579;43.238;23.124;2022-07-01T18:42:44;9.00;;;6.25;;
39410;SDS011;26579;43.238;23.124;2022-07-01T18:45:11;7.93;;;6.45;;
39410;SDS011;26579;43.238;23.124;2022-07-01T18:47:38;9.95;;;6.68;;
39410;SDS011;26579;43.238;23.124;2022-07-01T18:50:04;12.10;;;6.75;;
39410;SDS011;26579;43.238;23.124;2022-07-01T18:52:32;9.40;;;6.45;;
39410;SDS011;26579;43.238;23.124;2022-07-01T18:54:58;7.25;;;5.88;;
39410;SDS011;26579;43.238;23.124;2022-07-01T18:57:24;7.45;;;5.90;;
39410;SDS011;26579;43.238;23.124;2022-07-01T18:59:50;12.45;;;6.47;;
39410;SDS011;26579;43.238;23.124;2022-07-01T19:02:16;7.97;;;6.15;;
39410;SDS011;26579;43.238;23.124;2022-07-01T19:04:43;10.20;;;6.38;;
39410;SDS011;26579;43.238;23.124;2022-07-01T19:07:09;7.80;;;6.38;;
39410;SDS011;26579;43.238;23.124;2022-07-01T19:09:35;10.93;;;6.35;;
39410;SDS011;26579;43.238;23.124;2022-07-01T19:12:01;9.40;;;6.40;;
39410;SDS011;26579;43.238;23.124;2022-07-01T19:14:28;8.55;;;6.32;;
39410;SDS011;26579;43.238;23.124;2022-07-01T19:16:53;8.82;;;6.80;;
39410;SDS011;26579;43.238;23.124;2022-07-01T19:19:19;9.00;;;6.82;;
39410;SDS011;26579;43.238;23.124;2022-07-01T19:21:45;9.15;;;6.40;;
39410;SDS011;26579;43.238;23.124;2022-07-01T19:24:11;8.88;;;7.40;;
39410;SDS011;26579;43.238;23.124;2022-07-01T19:26:36;10.45;;;7.25;;
39410;SDS011;26579;43.238;23.124;2022-07-01T19:29:02;9.48;;;6.40;;
39410;SDS011;26579;43.238;23.124;2022-07-01T19:31:29;10.98;;;6.70;;
39410;SDS011;26579;43.238;23.124;2022-07-01T19:33:57;9.55;;;6.40;;
39410;SDS011;26579;43.238;23.124;2022-07-01T19:36:26;10.52;;;7.03;;
39410;SDS011;26579;43.238;23.124;2022-07-01T19:38:53;8.93;;;6.72;;
39410;SDS011;26579;43.238;23.124;2022-07-01T19:41:19;12.27;;;7.13;;
39410;SDS011;26579;43.238;23.124;2022-07-01T19:43:44;11.10;;;6.47;;
39410;SDS011;26579;43.238;23.124;2022-07-01T19:46:10;10.18;;;7.32;;
39410;SDS011;26579;43.238;23.124;2022-07-01T19:48:36;8.60;;;7.10;;
39410;SDS011;26579;43.238;23.124;2022-07-01T19:51:02;9.88;;;7.25;;
39410;SDS011;26579;43.238;23.124;2022-07-01T19:53:27;10.40;;;6.28;;
39410;SDS011;26579;43.238;23.124;2022-07-01T19:55:53;9.75;;;5.97;;
39410;SDS011;26579;43.238;23.124;2022-07-01T19:58:19;12.02;;;7.90;;
39410;SDS011;26579;43.238;23.124;2022-07-01T20:00:45;16.65;;;10.90;;
39410;SDS011;26579;43.238;23.124;2022-07-01T20:03:10;12.38;;;7.90;;
39410;SDS011;26579;43.238;23.124;2022-07-01T20:05:36;10.18;;;6.95;;
39410;SDS011;26579;43.238;23.124;2022-07-01T20:08:02;13.35;;;7.90;;
39410;SDS011;26579;43.238;23.124;2022-07-01T20:10:28;10.27;;;7.88;;
39410;SDS011;26579;43.238;23.124;2022-07-01T20:12:54;8.13;;;6.80;;
39410;SDS011;26579;43.238;23.124;2022-07-01T20:15:19;14.32;;;7.40;;
39410;SDS011;26579;43.238;23.124;2022-07-01T20:17:45;10.27;;;6.68;;
39410;SDS011;26579;43.238;23.124;2022-07-01T20:20:11;12.13;;;6.75;;
39410;SDS011;26579;43.238;23.124;2022-07-01T20:22:36;11.20;;;6.93;;